sensor_id;sensor_type;location;lat;lon;timestamp;P1;durP1;ratioP1;P2;durP2;ratioP2
52180;SDS011;38158;53.338;6.514;2024-01-06T00:01:31;10.27;;;7.57;;
52180;SDS011;38158;53.338;6.514;2024-01-06T00:03:56;12.00;;;7.72;;
52180;SDS011;38158;53.338;6.514;2024-01-06T00:06:23;11.85;;;8.70;;
52180;SDS011;38158;53.338;6.514;2024-01-06T00:08:49;11.30;;;8.70;;
52180;SDS011;38158;53.338;6.514;2024-01-06T00:11:19;12.88;;;8.43;;
52180;SDS011;38158;53.338;6.514;2024-01-06T00:13:48;13.13;;;7.53;;
52180;SDS011;38158;53.338;6.514;2024-01-06T00:16:17;10.60;;;8.18;;
52180;SDS011;38158;53.338;6.514;2024-01-06T00:18:46;11.32;;;7.15;;
52180;SDS011;38158;53.338;6.514;2024-01-06T00:21:12;11.52;;;7.55;;
52180;SDS011;38158;53.338;6.514;2024-01-06T00:23:39;12.20;;;7.60;;
52180;SDS011;38158;53.338;6.514;2024-01-06T00:26:06;13.57;;;8.52;;
52180;SDS011;38158;53.338;6.514;2024-01-06T00:28:33;11.55;;;8.52;;
52180;SDS011;38158;53.338;6.514;2024-01-06T00:30:59;11.57;;;7.88;;
52180;SDS011;38158;53.338;6.514;2024-01-06T00:33:24;12.15;;;7.80;;
52180;SDS011;38158;53.338;6.514;2024-01-06T00:35:50;12.52;;;7.78;;
52180;SDS011;38158;53.338;6.514;2024-01-06T00:38:16;12.25;;;7.05;;
52180;SDS011;38158;53.338;6.514;2024-01-06T00:40:42;15.27;;;7.70;;
52180;SDS011;38158;53.338;6.514;2024-01-06T00:43:07;11.25;;;7.22;;
52180;SDS011;38158;53.338;6.514;2024-01-06T00:45:33;10.48;;;7.45;;
52180;SDS011;38158;53.338;6.514;2024-01-06T00:47:59;12.23;;;7.43;;
52180;SDS011;38158;53.338;6.514;2024-01-06T00:50:24;9.90;;;6.55;;
52180;SDS011;38158;53.338;6.514;2024-01-06T00:52:50;10.55;;;6.20;;
52180;SDS011;38158;53.338;6.514;2024-01-06T00:55:20;13.27;;;6.53;;
52180;SDS011;38158;53.338;6.514;2024-01-06T00:57:46;9.70;;;6.30;;
52180;SDS011;38158;53.338;6.514;2024-01-06T01:00:12;9.68;;;6.40;;
52180;SDS011;38158;53.338;6.514;2024-01-06T01:02:38;9.48;;;6.60;;
52180;SDS011;38158;53.338;6.514;2024-01-06T01:05:04;10.57;;;6.72;;
52180;SDS011;38158;53.338;6.514;2024-01-06T01:07:30;9.15;;;5.78;;
52180;SDS011;38158;53.338;6.514;2024-01-06T01:09:56;11.00;;;6.07;;
52180;SDS011;38158;53.338;6.514;2024-01-06T01:12:22;10.38;;;6.13;;
52180;SDS011;38158;53.338;6.514;2024-01-06T01:14:49;8.90;;;6.18;;
52180;SDS011;38158;53.338;6.514;2024-01-06T01:17:14;11.80;;;6.45;;
52180;SDS011;38158;53.338;6.514;2024-01-06T01:19:40;9.98;;;6.55;;
52180;SDS011;38158;53.338;6.514;2024-01-06T01:22:05;9.80;;;6.47;;
52180;SDS011;38158;53.338;6.514;2024-01-06T01:24:31;10.48;;;6.63;;
52180;SDS011;38158;53.338;6.514;2024-01-06T01:26:57;10.30;;;6.43;;
52180;SDS011;38158;53.338;6.514;2024-01-06T01:29:23;8.27;;;6.15;;
52180;SDS011;38158;53.338;6.514;2024-01-06T01:31:49;9.77;;;6.47;;
52180;SDS011;38158;53.338;6.514;2024-01-06T01:34:14;10.60;;;7.20;;
52180;SDS011;38158;53.338;6.514;2024-01-06T01:36:40;10.77;;;7.28;;
52180;SDS011;38158;53.338;6.514;2024-01-06T01:39:06;9.77;;;7.13;;
52180;SDS011;38158;53.338;6.514;2024-01-06T01:41:31;12.77;;;6.68;;
52180;SDS011;38158;53.338;6.514;2024-01-06T01:43:57;10.65;;;6.15;;
52180;SDS011;38158;53.338;6.514;2024-01-06T01:46:26;10.05;;;6.22;;
52180;SDS011;38158;53.338;6.514;2024-01-06T01:48:56;9.02;;;6.32;;
52180;SDS011;38158;53.338;6.514;2024-01-06T01:51:25;8.50;;;5.70;;
52180;SDS011;38158;53.338;6.514;2024-01-06T01:53:59;8.48;;;5.25;;
52180;SDS011;38158;53.338;6.514;2024-01-06T01:56:26;9.63;;;6.10;;
52180;SDS011;38158;53.338;6.514;2024-01-06T01:58:53;8.52;;;6.07;;
52180;SDS011;38158;53.338;6.514;2024-01-06T02:01:18;10.85;;;6.70;;
52180;SDS011;38158;53.338;6.514;2024-01-06T02:03:44;10.13;;;6.70;;
52180;SDS011;38158;53.338;6.514;2024-01-06T02:06:11;10.93;;;6.30;;
52180;SDS011;38158;53.338;6.514;2024-01-06T02:08:37;10.55;;;7.20;;
52180;SDS011;38158;53.338;6.514;2024-01-06T02:11:04;8.87;;;6.43;;
52180;SDS011;38158;53.338;6.514;2024-01-06T02:13:33;11.73;;;7.28;;
52180;SDS011;38158;53.338;6.514;2024-01-06T02:16:03;12.43;;;8.45;;
52180;SDS011;38158;53.338;6.514;2024-01-06T02:18:30;10.02;;;7.60;;
52180;SDS011;38158;53.338;6.514;2024-01-06T02:21:00;16.10;;;8.85;;
52180;SDS011;38158;53.338;6.514;2024-01-06T02:23:27;12.60;;;9.07;;
52180;SDS011;38158;53.338;6.514;2024-01-06T02:25:54;16.30;;;9.38;;
52180;SDS011;38158;53.338;6.514;2024-01-06T02:28:20;13.75;;;9.40;;
52180;SDS011;38158;53.338;6.514;2024-01-06T02:30:46;15.60;;;9.23;;
52180;SDS011;38158;53.338;6.514;2024-01-06T02:33:12;12.55;;;9.38;;
52180;SDS011;38158;53.338;6.514;2024-01-06T02:35:38;13.50;;;9.55;;
52180;SDS011;38158;53.338;6.514;2024-01-06T02:38:05;14.15;;;9.48;;
52180;SDS011;38158;53.338;6.514;2024-01-06T02:40:31;18.42;;;10.75;;
52180;SDS011;38158;53.338;6.514;2024-01-06T02:42:57;15.50;;;9.70;;
52180;SDS011;38158;53.338;6.514;2024-01-06T02:45:23;15.52;;;10.77;;
52180;SDS011;38158;53.338;6.514;2024-01-06T02:47:49;13.10;;;9.25;;
52180;SDS011;38158;53.338;6.514;2024-01-06T02:50:14;13.77;;;8.57;;
52180;SDS011;38158;53.338;6.514;2024-01-06T02:52:40;14.35;;;9.35;;
52180;SDS011;38158;53.338;6.514;2024-01-06T02:55:06;14.07;;;8.68;;
52180;SDS011;38158;53.338;6.514;2024-01-06T02:57:32;13.95;;;8.90;;
52180;SDS011;38158;53.338;6.514;2024-01-06T02:59:57;13.85;;;8.52;;
52180;SDS011;38158;53.338;6.514;2024-01-06T03:02:23;12.70;;;8.23;;
52180;SDS011;38158;53.338;6.514;2024-01-06T03:04:49;13.88;;;8.50;;
52180;SDS011;38158;53.338;6.514;2024-01-06T03:07:15;12.10;;;8.23;;
52180;SDS011;38158;53.338;6.514;2024-01-06T03:09:42;12.23;;;8.27;;
52180;SDS011;38158;53.338;6.514;2024-01-06T03:12:07;11.60;;;7.20;;
52180;SDS011;38158;53.338;6.514;2024-01-06T03:14:36;12.10;;;7.78;;
52180;SDS011;38158;53.338;6.514;2024-01-06T03:17:02;13.88;;;7.40;;
52180;SDS011;38158;53.338;6.514;2024-01-06T03:19:28;11.45;;;7.55;;
52180;SDS011;38158;53.338;6.514;2024-01-06T03:21:55;10.27;;;6.60;;
52180;SDS011;38158;53.338;6.514;2024-01-06T03:24:21;12.45;;;7.93;;
52180;SDS011;38158;53.338;6.514;2024-01-06T03:26:47;11.25;;;6.82;;
52180;SDS011;38158;53.338;6.514;2024-01-06T03:29:13;14.07;;;7.40;;
52180;SDS011;38158;53.338;6.514;2024-01-06T03:31:42;11.50;;;7.72;;
52180;SDS011;38158;53.338;6.514;2024-01-06T03:34:08;13.95;;;7.93;;
52180;SDS011;38158;53.338;6.514;2024-01-06T03:36:36;13.13;;;7.88;;
52180;SDS011;38158;53.338;6.514;2024-01-06T03:39:02;15.93;;;8.13;;
52180;SDS011;38158;53.338;6.514;2024-01-06T03:41:28;10.85;;;7.20;;
52180;SDS011;38158;53.338;6.514;2024-01-06T03:43:53;12.68;;;7.40;;
52180;SDS011;38158;53.338;6.514;2024-01-06T03:46:19;11.85;;;7.93;;
52180;SDS011;38158;53.338;6.514;2024-01-06T03:48:44;12.35;;;7.38;;
52180;SDS011;38158;53.338;6.514;2024-01-06T03:51:11;11.20;;;8.13;;
52180;SDS011;38158;53.338;6.514;2024-01-06T03:53:37;13.40;;;7.90;;
52180;SDS011;38158;53.338;6.514;2024-01-06T03:56:03;12.70;;;7.75;;
52180;SDS011;38158;53.338;6.514;2024-01-06T03:58:29;13.00;;;7.28;;
52180;SDS011;38158;53.338;6.514;2024-01-06T04:00:55;11.38;;;6.97;;
52180;SDS011;38158;53.338;6.514;2024-01-06T04:03:20;11.82;;;6.68;;
52180;SDS011;38158;53.338;6.514;2024-01-06T04:05:46;11.07;;;7.22;;
52180;SDS011;38158;53.338;6.514;2024-01-06T04:08:12;12.10;;;7.47;;
52180;SDS011;38158;53.338;6.514;2024-01-06T04:10:37;9.63;;;6.43;;
52180;SDS011;38158;53.338;6.514;2024-01-06T04:13:04;13.15;;;7.45;;
52180;SDS011;38158;53.338;6.514;2024-01-06T04:15:29;11.48;;;7.35;;
52180;SDS011;38158;53.338;6.514;2024-01-06T04:17:55;9.95;;;7.15;;
52180;SDS011;38158;53.338;6.514;2024-01-06T04:20:21;10.07;;;6.38;;
52180;SDS011;38158;53.338;6.514;2024-01-06T04:22:48;10.77;;;6.80;;
52180;SDS011;38158;53.338;6.514;2024-01-06T04:25:13;12.55;;;8.40;;
52180;SDS011;38158;53.338;6.514;2024-01-06T04:27:39;9.70;;;6.88;;
52180;SDS011;38158;53.338;6.514;2024-01-06T04:30:05;10.23;;;6.50;;
52180;SDS011;38158;53.338;6.514;2024-01-06T04:32:31;10.60;;;7.00;;
52180;SDS011;38158;53.338;6.514;2024-01-06T04:34:56;11.40;;;7.40;;
52180;SDS011;38158;53.338;6.514;2024-01-06T04:37:22;11.63;;;7.50;;
52180;SDS011;38158;53.338;6.514;2024-01-06T04:39:49;11.02;;;6.95;;
52180;SDS011;38158;53.338;6.514;2024-01-06T04:42:14;10.55;;;7.57;;
52180;SDS011;38158;53.338;6.514;2024-01-06T04:44:40;11.43;;;7.35;;
52180;SDS011;38158;53.338;6.514;2024-01-06T04:47:06;11.60;;;7.68;;
52180;SDS011;38158;53.338;6.514;2024-01-06T04:49:31;11.73;;;7.43;;
52180;SDS011;38158;53.338;6.514;2024-01-06T04:51:57;11.70;;;8.02;;
52180;SDS011;38158;53.338;6.514;2024-01-06T04:54:22;13.20;;;7.78;;
52180;SDS011;38158;53.338;6.514;2024-01-06T04:56:48;13.02;;;7.95;;
52180;SDS011;38158;53.338;6.514;2024-01-06T04:59:14;15.18;;;7.32;;
52180;SDS011;38158;53.338;6.514;2024-01-06T05:01:39;11.35;;;7.38;;
52180;SDS011;38158;53.338;6.514;2024-01-06T05:04:05;12.93;;;7.07;;
52180;SDS011;38158;53.338;6.514;2024-01-06T05:06:31;13.48;;;7.95;;
52180;SDS011;38158;53.338;6.514;2024-01-06T05:08:56;14.50;;;9.25;;
52180;SDS011;38158;53.338;6.514;2024-01-06T05:11:22;12.73;;;8.43;;
52180;SDS011;38158;53.338;6.514;2024-01-06T05:13:48;11.38;;;7.53;;
52180;SDS011;38158;53.338;6.514;2024-01-06T05:16:13;12.57;;;8.32;;
52180;SDS011;38158;53.338;6.514;2024-01-06T05:18:39;14.65;;;7.90;;
52180;SDS011;38158;53.338;6.514;2024-01-06T05:21:05;11.07;;;7.75;;
52180;SDS011;38158;53.338;6.514;2024-01-06T05:23:30;14.13;;;7.72;;
52180;SDS011;38158;53.338;6.514;2024-01-06T05:25:56;12.20;;;8.25;;
52180;SDS011;38158;53.338;6.514;2024-01-06T05:28:22;14.43;;;8.98;;
52180;SDS011;38158;53.338;6.514;2024-01-06T05:30:47;16.48;;;9.30;;
52180;SDS011;38158;53.338;6.514;2024-01-06T05:33:13;13.43;;;9.18;;
52180;SDS011;38158;53.338;6.514;2024-01-06T05:35:40;13.40;;;8.32;;
52180;SDS011;38158;53.338;6.514;2024-01-06T05:38:06;13.57;;;9.18;;
52180;SDS011;38158;53.338;6.514;2024-01-06T05:40:31;17.05;;;8.93;;
52180;SDS011;38158;53.338;6.514;2024-01-06T05:42:57;12.65;;;7.55;;
52180;SDS011;38158;53.338;6.514;2024-01-06T05:45:25;14.55;;;8.57;;
52180;SDS011;38158;53.338;6.514;2024-01-06T05:47:51;13.27;;;8.38;;
52180;SDS011;38158;53.338;6.514;2024-01-06T05:50:17;13.60;;;8.63;;
52180;SDS011;38158;53.338;6.514;2024-01-06T05:52:42;11.35;;;7.88;;
52180;SDS011;38158;53.338;6.514;2024-01-06T05:55:08;10.98;;;8.05;;
52180;SDS011;38158;53.338;6.514;2024-01-06T05:57:34;11.27;;;7.72;;
52180;SDS011;38158;53.338;6.514;2024-01-06T06:00:00;12.00;;;8.43;;
52180;SDS011;38158;53.338;6.514;2024-01-06T06:02:26;13.93;;;8.07;;
52180;SDS011;38158;53.338;6.514;2024-01-06T06:04:52;11.38;;;8.07;;
52180;SDS011;38158;53.338;6.514;2024-01-06T06:07:18;14.30;;;7.70;;
52180;SDS011;38158;53.338;6.514;2024-01-06T06:09:44;10.48;;;7.03;;
52180;SDS011;38158;53.338;6.514;2024-01-06T06:12:12;13.38;;;8.15;;
52180;SDS011;38158;53.338;6.514;2024-01-06T06:14:39;16.55;;;8.25;;
52180;SDS011;38158;53.338;6.514;2024-01-06T06:17:04;11.95;;;7.13;;
52180;SDS011;38158;53.338;6.514;2024-01-06T06:19:31;12.53;;;8.00;;
52180;SDS011;38158;53.338;6.514;2024-01-06T06:21:56;15.13;;;8.35;;
52180;SDS011;38158;53.338;6.514;2024-01-06T06:24:23;11.68;;;7.10;;
52180;SDS011;38158;53.338;6.514;2024-01-06T06:26:49;13.00;;;8.02;;
52180;SDS011;38158;53.338;6.514;2024-01-06T06:29:14;14.65;;;8.15;;
52180;SDS011;38158;53.338;6.514;2024-01-06T06:31:41;14.73;;;8.38;;
52180;SDS011;38158;53.338;6.514;2024-01-06T06:34:08;15.05;;;8.73;;
52180;SDS011;38158;53.338;6.514;2024-01-06T06:36:34;12.48;;;7.63;;
52180;SDS011;38158;53.338;6.514;2024-01-06T06:39:00;11.60;;;7.78;;
52180;SDS011;38158;53.338;6.514;2024-01-06T06:41:26;13.82;;;8.18;;
52180;SDS011;38158;53.338;6.514;2024-01-06T06:43:51;12.30;;;7.75;;
52180;SDS011;38158;53.338;6.514;2024-01-06T06:46:17;11.43;;;7.90;;
52180;SDS011;38158;53.338;6.514;2024-01-06T06:48:44;10.65;;;7.50;;
52180;SDS011;38158;53.338;6.514;2024-01-06T06:51:10;12.18;;;8.50;;
52180;SDS011;38158;53.338;6.514;2024-01-06T06:53:36;14.18;;;7.40;;
52180;SDS011;38158;53.338;6.514;2024-01-06T06:56:02;10.57;;;7.40;;
52180;SDS011;38158;53.338;6.514;2024-01-06T06:58:27;14.27;;;8.13;;
52180;SDS011;38158;53.338;6.514;2024-01-06T07:00:53;10.32;;;7.13;;
52180;SDS011;38158;53.338;6.514;2024-01-06T07:03:19;11.05;;;7.38;;
52180;SDS011;38158;53.338;6.514;2024-01-06T07:05:45;11.97;;;9.17;;
52180;SDS011;38158;53.338;6.514;2024-01-06T07:08:11;12.25;;;8.85;;
52180;SDS011;38158;53.338;6.514;2024-01-06T07:13:04;12.80;;;8.05;;
52180;SDS011;38158;53.338;6.514;2024-01-06T07:15:30;13.13;;;9.32;;
52180;SDS011;38158;53.338;6.514;2024-01-06T07:17:56;16.25;;;9.93;;
52180;SDS011;38158;53.338;6.514;2024-01-06T07:20:22;12.13;;;9.32;;
52180;SDS011;38158;53.338;6.514;2024-01-06T07:22:47;12.07;;;8.88;;
52180;SDS011;38158;53.338;6.514;2024-01-06T07:25:13;12.77;;;9.60;;
52180;SDS011;38158;53.338;6.514;2024-01-06T07:27:38;15.07;;;9.77;;
52180;SDS011;38158;53.338;6.514;2024-01-06T07:30:05;14.73;;;9.55;;
52180;SDS011;38158;53.338;6.514;2024-01-06T07:32:34;13.07;;;9.20;;
52180;SDS011;38158;53.338;6.514;2024-01-06T07:35:00;13.55;;;9.55;;
52180;SDS011;38158;53.338;6.514;2024-01-06T07:37:25;13.02;;;9.20;;
52180;SDS011;38158;53.338;6.514;2024-01-06T07:39:51;15.52;;;10.18;;
52180;SDS011;38158;53.338;6.514;2024-01-06T07:42:17;14.35;;;9.75;;
52180;SDS011;38158;53.338;6.514;2024-01-06T07:44:44;13.88;;;9.52;;
52180;SDS011;38158;53.338;6.514;2024-01-06T07:47:10;12.90;;;9.40;;
52180;SDS011;38158;53.338;6.514;2024-01-06T07:49:35;19.40;;;11.50;;
52180;SDS011;38158;53.338;6.514;2024-01-06T07:52:01;15.57;;;10.13;;
52180;SDS011;38158;53.338;6.514;2024-01-06T07:54:27;17.42;;;10.68;;
52180;SDS011;38158;53.338;6.514;2024-01-06T07:56:53;14.25;;;10.57;;
52180;SDS011;38158;53.338;6.514;2024-01-06T07:59:22;13.85;;;10.23;;
52180;SDS011;38158;53.338;6.514;2024-01-06T08:01:48;14.57;;;9.73;;
52180;SDS011;38158;53.338;6.514;2024-01-06T08:04:13;15.60;;;9.95;;
52180;SDS011;38158;53.338;6.514;2024-01-06T08:06:39;15.50;;;11.23;;
52180;SDS011;38158;53.338;6.514;2024-01-06T08:09:05;16.23;;;9.75;;
52180;SDS011;38158;53.338;6.514;2024-01-06T08:11:31;14.73;;;9.98;;
52180;SDS011;38158;53.338;6.514;2024-01-06T08:13:56;18.27;;;11.00;;
52180;SDS011;38158;53.338;6.514;2024-01-06T08:16:22;15.75;;;10.98;;
52180;SDS011;38158;53.338;6.514;2024-01-06T08:18:48;16.10;;;10.50;;
52180;SDS011;38158;53.338;6.514;2024-01-06T08:21:14;14.02;;;10.07;;
52180;SDS011;38158;53.338;6.514;2024-01-06T08:23:39;13.80;;;9.70;;
52180;SDS011;38158;53.338;6.514;2024-01-06T08:26:06;14.07;;;9.45;;
52180;SDS011;38158;53.338;6.514;2024-01-06T08:28:31;15.50;;;10.00;;
52180;SDS011;38158;53.338;6.514;2024-01-06T08:30:57;15.00;;;9.70;;
52180;SDS011;38158;53.338;6.514;2024-01-06T08:33:23;17.13;;;10.40;;
52180;SDS011;38158;53.338;6.514;2024-01-06T08:35:48;12.80;;;9.25;;
52180;SDS011;38158;53.338;6.514;2024-01-06T08:38:14;16.08;;;10.52;;
52180;SDS011;38158;53.338;6.514;2024-01-06T08:40:40;12.77;;;9.30;;
52180;SDS011;38158;53.338;6.514;2024-01-06T08:43:05;13.35;;;8.80;;
52180;SDS011;38158;53.338;6.514;2024-01-06T08:45:31;15.25;;;9.90;;
52180;SDS011;38158;53.338;6.514;2024-01-06T08:47:57;14.35;;;9.27;;
52180;SDS011;38158;53.338;6.514;2024-01-06T08:50:22;15.55;;;9.48;;
52180;SDS011;38158;53.338;6.514;2024-01-06T08:52:48;12.90;;;7.97;;
52180;SDS011;38158;53.338;6.514;2024-01-06T08:55:14;13.38;;;8.20;;
52180;SDS011;38158;53.338;6.514;2024-01-06T08:57:39;12.13;;;8.77;;
52180;SDS011;38158;53.338;6.514;2024-01-06T09:00:05;13.02;;;7.88;;
52180;SDS011;38158;53.338;6.514;2024-01-06T09:02:31;14.88;;;9.75;;
52180;SDS011;38158;53.338;6.514;2024-01-06T09:04:57;12.18;;;8.48;;
52180;SDS011;38158;53.338;6.514;2024-01-06T09:07:22;14.52;;;9.60;;
52180;SDS011;38158;53.338;6.514;2024-01-06T09:09:48;13.13;;;9.90;;
52180;SDS011;38158;53.338;6.514;2024-01-06T09:12:13;15.23;;;9.88;;
52180;SDS011;38158;53.338;6.514;2024-01-06T09:14:39;15.00;;;10.45;;
52180;SDS011;38158;53.338;6.514;2024-01-06T09:17:05;13.65;;;9.50;;
52180;SDS011;38158;53.338;6.514;2024-01-06T09:19:31;16.30;;;10.85;;
52180;SDS011;38158;53.338;6.514;2024-01-06T09:21:57;13.32;;;9.35;;
52180;SDS011;38158;53.338;6.514;2024-01-06T09:24:22;17.73;;;11.45;;
52180;SDS011;38158;53.338;6.514;2024-01-06T09:26:48;14.95;;;9.52;;
52180;SDS011;38158;53.338;6.514;2024-01-06T09:29:15;14.65;;;10.30;;
52180;SDS011;38158;53.338;6.514;2024-01-06T09:31:41;14.85;;;10.48;;
52180;SDS011;38158;53.338;6.514;2024-01-06T09:34:11;13.77;;;9.50;;
52180;SDS011;38158;53.338;6.514;2024-01-06T09:36:40;17.65;;;10.57;;
52180;SDS011;38158;53.338;6.514;2024-01-06T09:39:06;15.50;;;10.10;;
52180;SDS011;38158;53.338;6.514;2024-01-06T09:41:33;16.13;;;11.00;;
52180;SDS011;38158;53.338;6.514;2024-01-06T09:43:59;17.27;;;10.10;;
52180;SDS011;38158;53.338;6.514;2024-01-06T09:46:25;15.55;;;9.55;;
52180;SDS011;38158;53.338;6.514;2024-01-06T09:48:53;14.73;;;10.18;;
52180;SDS011;38158;53.338;6.514;2024-01-06T09:51:20;16.75;;;9.85;;
52180;SDS011;38158;53.338;6.514;2024-01-06T09:53:52;16.08;;;10.45;;
52180;SDS011;38158;53.338;6.514;2024-01-06T09:56:26;14.77;;;9.25;;
52180;SDS011;38158;53.338;6.514;2024-01-06T09:58:53;13.88;;;8.57;;
52180;SDS011;38158;53.338;6.514;2024-01-06T10:01:22;14.43;;;8.97;;
52180;SDS011;38158;53.338;6.514;2024-01-06T10:03:48;12.60;;;8.55;;
52180;SDS011;38158;53.338;6.514;2024-01-06T10:06:14;13.40;;;7.90;;
52180;SDS011;38158;53.338;6.514;2024-01-06T10:08:44;11.32;;;7.65;;
52180;SDS011;38158;53.338;6.514;2024-01-06T10:11:12;14.35;;;7.70;;
52180;SDS011;38158;53.338;6.514;2024-01-06T10:13:38;11.65;;;7.75;;
52180;SDS011;38158;53.338;6.514;2024-01-06T10:16:04;11.48;;;7.72;;
52180;SDS011;38158;53.338;6.514;2024-01-06T10:18:31;9.90;;;6.32;;
52180;SDS011;38158;53.338;6.514;2024-01-06T10:20:58;12.30;;;7.38;;
52180;SDS011;38158;53.338;6.514;2024-01-06T10:23:25;11.02;;;7.40;;
52180;SDS011;38158;53.338;6.514;2024-01-06T10:25:55;11.57;;;7.72;;
52180;SDS011;38158;53.338;6.514;2024-01-06T10:28:21;10.93;;;6.82;;
52180;SDS011;38158;53.338;6.514;2024-01-06T10:30:53;10.75;;;6.68;;
52180;SDS011;38158;53.338;6.514;2024-01-06T10:33:22;10.18;;;7.00;;
52180;SDS011;38158;53.338;6.514;2024-01-06T10:35:52;11.85;;;7.70;;
52180;SDS011;38158;53.338;6.514;2024-01-06T10:38:19;10.95;;;6.50;;
52180;SDS011;38158;53.338;6.514;2024-01-06T10:40:58;10.43;;;7.30;;
52180;SDS011;38158;53.338;6.514;2024-01-06T10:43:25;11.98;;;7.40;;
52180;SDS011;38158;53.338;6.514;2024-01-06T10:45:55;10.50;;;7.30;;
52180;SDS011;38158;53.338;6.514;2024-01-06T10:48:25;10.48;;;7.47;;
52180;SDS011;38158;53.338;6.514;2024-01-06T10:50:53;11.70;;;6.60;;
52180;SDS011;38158;53.338;6.514;2024-01-06T10:53:20;11.43;;;8.00;;
52180;SDS011;38158;53.338;6.514;2024-01-06T10:55:49;9.82;;;6.40;;
52180;SDS011;38158;53.338;6.514;2024-01-06T10:58:17;11.38;;;7.78;;
52180;SDS011;38158;53.338;6.514;2024-01-06T11:00:43;12.43;;;7.80;;
52180;SDS011;38158;53.338;6.514;2024-01-06T11:03:09;10.27;;;6.78;;
52180;SDS011;38158;53.338;6.514;2024-01-06T11:05:35;10.52;;;7.90;;
52180;SDS011;38158;53.338;6.514;2024-01-06T11:08:05;12.80;;;8.15;;
52180;SDS011;38158;53.338;6.514;2024-01-06T11:10:31;12.63;;;8.40;;
52180;SDS011;38158;53.338;6.514;2024-01-06T11:15:43;12.48;;;8.43;;
52180;SDS011;38158;53.338;6.514;2024-01-06T11:21:15;12.80;;;9.05;;
52180;SDS011;38158;53.338;6.514;2024-01-06T11:23:44;10.77;;;7.75;;
52180;SDS011;38158;53.338;6.514;2024-01-06T11:26:10;10.75;;;7.90;;
52180;SDS011;38158;53.338;6.514;2024-01-06T11:28:45;12.05;;;7.93;;
52180;SDS011;38158;53.338;6.514;2024-01-06T11:31:11;10.70;;;6.93;;
52180;SDS011;38158;53.338;6.514;2024-01-06T11:33:44;10.85;;;8.02;;
52180;SDS011;38158;53.338;6.514;2024-01-06T11:36:14;10.60;;;7.00;;
52180;SDS011;38158;53.338;6.514;2024-01-06T11:38:40;9.77;;;7.07;;
52180;SDS011;38158;53.338;6.514;2024-01-06T11:41:10;11.80;;;7.95;;
52180;SDS011;38158;53.338;6.514;2024-01-06T11:43:55;11.07;;;7.95;;
52180;SDS011;38158;53.338;6.514;2024-01-06T11:46:21;10.73;;;7.40;;
52180;SDS011;38158;53.338;6.514;2024-01-06T11:48:47;11.48;;;8.10;;
52180;SDS011;38158;53.338;6.514;2024-01-06T11:51:17;11.45;;;7.75;;
52180;SDS011;38158;53.338;6.514;2024-01-06T11:53:43;12.73;;;7.70;;
52180;SDS011;38158;53.338;6.514;2024-01-06T11:56:10;12.82;;;7.38;;
52180;SDS011;38158;53.338;6.514;2024-01-06T11:58:39;9.10;;;6.28;;
52180;SDS011;38158;53.338;6.514;2024-01-06T12:01:04;10.73;;;7.05;;
52180;SDS011;38158;53.338;6.514;2024-01-06T12:03:30;9.82;;;7.40;;
52180;SDS011;38158;53.338;6.514;2024-01-06T12:05:59;13.30;;;9.13;;
52180;SDS011;38158;53.338;6.514;2024-01-06T12:08:26;13.25;;;8.95;;
52180;SDS011;38158;53.338;6.514;2024-01-06T12:11:01;13.32;;;9.05;;
52180;SDS011;38158;53.338;6.514;2024-01-06T12:13:28;13.35;;;9.68;;
52180;SDS011;38158;53.338;6.514;2024-01-06T12:15:54;13.77;;;8.27;;
52180;SDS011;38158;53.338;6.514;2024-01-06T12:18:20;12.95;;;8.60;;
52180;SDS011;38158;53.338;6.514;2024-01-06T12:20:46;11.52;;;8.60;;
52180;SDS011;38158;53.338;6.514;2024-01-06T12:23:11;13.23;;;9.32;;
52180;SDS011;38158;53.338;6.514;2024-01-06T12:25:37;11.77;;;8.43;;
52180;SDS011;38158;53.338;6.514;2024-01-06T12:28:05;12.30;;;8.68;;
52180;SDS011;38158;53.338;6.514;2024-01-06T12:30:31;10.70;;;7.82;;
52180;SDS011;38158;53.338;6.514;2024-01-06T12:32:59;9.63;;;6.90;;
52180;SDS011;38158;53.338;6.514;2024-01-06T12:35:26;9.68;;;6.50;;
52180;SDS011;38158;53.338;6.514;2024-01-06T12:37:52;8.63;;;6.13;;
52180;SDS011;38158;53.338;6.514;2024-01-06T12:40:17;9.07;;;6.60;;
52180;SDS011;38158;53.338;6.514;2024-01-06T12:42:45;10.05;;;7.55;;
52180;SDS011;38158;53.338;6.514;2024-01-06T12:45:11;14.70;;;8.98;;
52180;SDS011;38158;53.338;6.514;2024-01-06T12:47:37;10.23;;;7.57;;
52180;SDS011;38158;53.338;6.514;2024-01-06T12:50:03;10.75;;;7.05;;
52180;SDS011;38158;53.338;6.514;2024-01-06T12:52:30;11.75;;;7.65;;
52180;SDS011;38158;53.338;6.514;2024-01-06T12:54:55;10.73;;;8.40;;
52180;SDS011;38158;53.338;6.514;2024-01-06T12:57:21;12.90;;;8.98;;
52180;SDS011;38158;53.338;6.514;2024-01-06T12:59:47;11.75;;;8.10;;
52180;SDS011;38158;53.338;6.514;2024-01-06T13:02:12;11.35;;;7.45;;
52180;SDS011;38158;53.338;6.514;2024-01-06T13:04:38;9.77;;;7.25;;
52180;SDS011;38158;53.338;6.514;2024-01-06T13:07:03;9.68;;;7.25;;
52180;SDS011;38158;53.338;6.514;2024-01-06T13:09:29;10.38;;;7.25;;
52180;SDS011;38158;53.338;6.514;2024-01-06T13:11:55;11.20;;;7.22;;
52180;SDS011;38158;53.338;6.514;2024-01-06T13:14:25;10.60;;;6.95;;
52180;SDS011;38158;53.338;6.514;2024-01-06T13:16:55;11.07;;;7.13;;
52180;SDS011;38158;53.338;6.514;2024-01-06T13:19:20;11.00;;;6.68;;
52180;SDS011;38158;53.338;6.514;2024-01-06T13:21:46;9.70;;;6.90;;
52180;SDS011;38158;53.338;6.514;2024-01-06T13:24:12;11.93;;;7.00;;
52180;SDS011;38158;53.338;6.514;2024-01-06T13:26:38;14.43;;;9.75;;
52180;SDS011;38158;53.338;6.514;2024-01-06T13:29:03;11.38;;;7.18;;
52180;SDS011;38158;53.338;6.514;2024-01-06T13:31:29;9.48;;;6.05;;
52180;SDS011;38158;53.338;6.514;2024-01-06T13:33:56;9.77;;;6.68;;
52180;SDS011;38158;53.338;6.514;2024-01-06T13:36:22;9.45;;;6.15;;
52180;SDS011;38158;53.338;6.514;2024-01-06T13:38:47;9.55;;;6.55;;
52180;SDS011;38158;53.338;6.514;2024-01-06T13:41:14;10.77;;;7.03;;
52180;SDS011;38158;53.338;6.514;2024-01-06T13:43:40;10.47;;;7.27;;
52180;SDS011;38158;53.338;6.514;2024-01-06T13:46:05;14.05;;;10.65;;
52180;SDS011;38158;53.338;6.514;2024-01-06T13:48:31;12.18;;;7.90;;
52180;SDS011;38158;53.338;6.514;2024-01-06T13:50:57;11.82;;;7.80;;
52180;SDS011;38158;53.338;6.514;2024-01-06T13:53:23;13.30;;;9.13;;
52180;SDS011;38158;53.338;6.514;2024-01-06T13:55:49;13.00;;;9.32;;
52180;SDS011;38158;53.338;6.514;2024-01-06T13:58:15;10.90;;;8.10;;
52180;SDS011;38158;53.338;6.514;2024-01-06T14:00:42;11.93;;;8.15;;
52180;SDS011;38158;53.338;6.514;2024-01-06T14:03:09;10.82;;;7.47;;
52180;SDS011;38158;53.338;6.514;2024-01-06T14:05:35;25.10;;;19.48;;
52180;SDS011;38158;53.338;6.514;2024-01-06T14:08:01;62.45;;;48.40;;
52180;SDS011;38158;53.338;6.514;2024-01-06T14:10:27;58.80;;;39.63;;
52180;SDS011;38158;53.338;6.514;2024-01-06T14:12:53;55.97;;;37.78;;
52180;SDS011;38158;53.338;6.514;2024-01-06T14:15:19;24.50;;;15.93;;
52180;SDS011;38158;53.338;6.514;2024-01-06T14:17:44;20.25;;;12.82;;
52180;SDS011;38158;53.338;6.514;2024-01-06T14:20:14;16.27;;;10.55;;
52180;SDS011;38158;53.338;6.514;2024-01-06T14:22:43;13.82;;;9.38;;
52180;SDS011;38158;53.338;6.514;2024-01-06T14:25:12;11.05;;;7.93;;
52180;SDS011;38158;53.338;6.514;2024-01-06T14:27:38;13.57;;;8.18;;
52180;SDS011;38158;53.338;6.514;2024-01-06T14:30:04;13.63;;;8.20;;
52180;SDS011;38158;53.338;6.514;2024-01-06T14:32:32;13.88;;;7.60;;
52180;SDS011;38158;53.338;6.514;2024-01-06T14:34:58;13.68;;;8.43;;
52180;SDS011;38158;53.338;6.514;2024-01-06T14:37:23;12.13;;;8.05;;